createdAt,value
2022-11-11T00:01:16.925Z,95.78
2022-11-11T00:03:44.068Z,95.84
2022-11-11T00:06:13.595Z,95.96
2022-11-11T00:08:40.986Z,95.92
2022-11-11T00:11:10.302Z,96.04
2022-11-11T00:13:38.255Z,96.14
2022-11-11T00:16:17.375Z,95.68
2022-11-11T00:19:04.136Z,95.79
2022-11-11T00:21:47.075Z,95.71
2022-11-11T00:24:39.142Z,95.96
2022-11-11T00:27:06.764Z,95.64
2022-11-11T00:29:34.138Z,95.69
2022-11-11T00:32:19.530Z,95.75
2022-11-11T00:35:06.322Z,95.60
2022-11-11T00:37:34.426Z,96.04
2022-11-11T00:40:01.768Z,95.61
2022-11-11T00:42:28.684Z,95.73
2022-11-11T00:44:55.988Z,95.88
2022-11-11T00:47:41.616Z,95.63
2022-11-11T00:50:40.970Z,95.55
2022-11-11T00:53:25.979Z,95.34
2022-11-11T00:55:54.558Z,95.64
2022-11-11T00:58:23.148Z,95.78
2022-11-11T01:00:53.791Z,95.47
2022-11-11T01:03:22.229Z,95.57
2022-11-11T01:05:49.727Z,96.18
2022-11-11T01:08:16.717Z,96.00
2022-11-11T01:10:43.848Z,95.81
2022-11-11T01:13:18.842Z,95.64
2022-11-11T01:15:51.134Z,95.28
2022-11-11T01:18:23.333Z,95.32
2022-11-11T01:21:04.591Z,95.52
2022-11-11T01:23:33.277Z,95.62
2022-11-11T01:26:03.710Z,95.33
2022-11-11T01:28:31.224Z,95.39
2022-11-11T01:31:06.292Z,95.14
2022-11-11T01:33:33.584Z,95.43
2022-11-11T01:36:08.035Z,95.36
2022-11-11T01:38:35.484Z,95.51
2022-11-11T01:41:22.619Z,95.36
2022-11-11T01:43:49.519Z,95.72
2022-11-11T01:46:35.667Z,95.94
2022-11-11T01:49:21.729Z,95.82
2022-11-11T01:52:09.842Z,95.97
2022-11-11T01:54:49.249Z,95.84
2022-11-11T01:57:22.833Z,96.24
2022-11-11T02:00:00.544Z,96.55
2022-11-11T02:02:42.812Z,96.59
2022-11-11T02:05:32.595Z,96.80
2022-11-11T02:08:32.644Z,97.00
2022-11-11T02:11:04.224Z,97.04
2022-11-11T02:13:50.362Z,97.20
2022-11-11T02:16:17.201Z,97.32
2022-11-11T02:18:44.271Z,97.60
2022-11-11T02:21:18.895Z,97.66
2022-11-11T02:24:04.859Z,97.87
2022-11-11T02:26:34.885Z,98.04
2022-11-11T02:29:05.285Z,98.05
2022-11-11T02:31:32.742Z,98.09
2022-11-11T02:33:59.687Z,98.11
2022-11-11T02:36:27.140Z,98.34
2022-11-11T02:38:54.665Z,98.23
2022-11-11T02:41:40.185Z,98.62
2022-11-11T02:44:07.153Z,98.23
2022-11-11T02:46:34.142Z,98.31
2022-11-11T02:49:01.034Z,98.71
2022-11-11T02:51:27.750Z,98.55
2022-11-11T02:53:59.098Z,98.52
2022-11-11T02:56:44.593Z,98.65
2022-11-11T02:59:11.528Z,98.92
2022-11-11T03:01:38.354Z,98.91
2022-11-11T03:04:05.762Z,99.02
2022-11-11T03:06:32.837Z,99.05
2022-11-11T03:08:59.747Z,98.88
2022-11-11T03:11:29.161Z,98.72
2022-11-11T03:13:57.374Z,99.13
2022-11-11T03:16:43.223Z,99.09
2022-11-11T03:19:10.525Z,99.45
2022-11-11T03:22:52.855Z,99.40
2022-11-11T03:24:25.286Z,99.29
2022-11-11T03:26:51.915Z,99.32
2022-11-11T03:29:18.679Z,99.46
2022-11-11T03:31:45.402Z,99.38
2022-11-11T03:34:18.310Z,99.41
2022-11-11T03:37:04.325Z,99.57
2022-11-11T03:39:31.105Z,99.74
2022-11-11T03:41:58.066Z,99.51
2022-11-11T03:44:24.807Z,99.71
2022-11-11T03:46:51.535Z,99.77
2022-11-11T03:49:18.204Z,99.65
2022-11-11T03:51:44.894Z,99.67
2022-11-11T03:54:11.639Z,99.97
2022-11-11T03:56:38.396Z,100.01
2022-11-11T03:59:05.083Z,99.91
2022-11-11T04:01:50.498Z,100.28
2022-11-11T04:04:35.653Z,100.21
2022-11-11T04:07:21.105Z,100.45
2022-11-11T04:10:06.463Z,100.61
2022-11-11T04:12:56.314Z,100.38
2022-11-11T04:15:41.613Z,100.57
2022-11-11T04:18:08.294Z,100.55
2022-11-11T04:20:53.679Z,100.75
2022-11-11T04:23:20.503Z,100.28
2022-11-11T04:25:50.357Z,100.63
2022-11-11T04:28:35.626Z,100.84
2022-11-11T04:31:02.363Z,101.01
2022-11-11T04:33:29.066Z,100.57
2022-11-11T04:35:55.727Z,100.96
2022-11-11T04:38:40.981Z,101.15
2022-11-11T04:41:09.037Z,101.03
2022-11-11T04:43:55.765Z,100.86
2022-11-11T04:46:22.474Z,101.01
2022-11-11T04:48:49.285Z,101.17
2022-11-11T04:51:15.903Z,101.08
2022-11-11T04:53:42.736Z,101.32
2022-11-11T04:56:28.003Z,101.38
2022-11-11T04:59:14.764Z,101.51
2022-11-11T05:01:59.981Z,101.64
2022-11-11T05:04:26.864Z,101.66
2022-11-11T05:07:12.346Z,101.73
2022-11-11T05:09:39.111Z,101.50
2022-11-11T05:12:06.175Z,101.53
2022-11-11T05:14:51.357Z,101.76
2022-11-11T05:17:36.914Z,101.83
2022-11-11T05:20:22.397Z,101.94
2022-11-11T05:22:49.166Z,101.99
2022-11-11T05:25:30.710Z,102.08
2022-11-11T05:27:58.054Z,102.11
2022-11-11T05:30:26.439Z,102.34
2022-11-11T05:32:55.892Z,102.53
2022-11-11T05:35:22.636Z,102.57
2022-11-11T05:38:09.363Z,102.47
2022-11-11T05:40:36.214Z,102.60
2022-11-11T05:43:02.823Z,102.65
2022-11-11T05:45:29.514Z,102.76
2022-11-11T05:48:01.107Z,102.59
2022-11-11T05:50:27.790Z,102.44
2022-11-11T05:52:56.231Z,102.57
2022-11-11T05:55:23.223Z,102.70
2022-11-11T05:57:49.986Z,102.75
2022-11-11T06:00:17.495Z,102.78
2022-11-11T06:02:44.230Z,102.89
2022-11-11T06:05:10.832Z,102.99
2022-11-11T06:07:39.698Z,102.81
2022-11-11T06:10:25.506Z,103.21
2022-11-11T06:13:10.398Z,102.77
2022-11-11T06:15:38.169Z,105.21
2022-11-11T06:18:06.367Z,103.66
2022-11-11T06:20:36.934Z,102.82
2022-11-11T06:23:05.213Z,103.01
2022-11-11T06:25:52.548Z,103.17
2022-11-11T06:28:19.945Z,103.02
2022-11-11T06:30:51.037Z,103.20
2022-11-11T06:33:20.176Z,102.93
2022-11-11T06:35:47.912Z,103.01
2022-11-11T06:38:14.900Z,103.25
2022-11-11T06:40:44.983Z,102.93
2022-11-11T06:43:11.936Z,103.12
2022-11-11T06:45:38.915Z,103.16
2022-11-11T06:48:06.197Z,103.05
2022-11-11T06:50:33.544Z,102.88
2022-11-11T06:53:14.654Z,102.83
2022-11-11T06:55:41.572Z,102.82
2022-11-11T06:58:10.985Z,102.95
2022-11-11T07:00:39.089Z,103.02
2022-11-11T07:03:07.741Z,102.80
2022-11-11T07:05:34.678Z,103.02
2022-11-11T07:08:05.579Z,103.33
2022-11-11T07:10:34.297Z,102.01
2022-11-11T07:13:00.943Z,103.90
2022-11-11T07:15:28.104Z,101.73
2022-11-11T07:17:54.714Z,102.64
2022-11-11T07:20:21.469Z,102.15
2022-11-11T07:22:48.380Z,102.83
2022-11-11T07:25:15.309Z,102.83
2022-11-11T07:27:42.898Z,103.18
2022-11-11T07:30:12.094Z,103.04
2022-11-11T07:32:50.269Z,103.12
2022-11-11T07:35:17.958Z,103.21
2022-11-11T07:37:45.255Z,102.99
2022-11-11T07:40:14.772Z,102.90
2022-11-11T07:42:42.697Z,102.89
2022-11-11T07:45:11.056Z,103.17
2022-11-11T07:47:37.839Z,102.90
2022-11-11T07:50:08.109Z,102.96
2022-11-11T07:52:37.413Z,103.12
2022-11-11T07:55:05.929Z,103.05
2022-11-11T07:57:32.790Z,103.06
2022-11-11T07:59:59.719Z,103.25
2022-11-11T08:02:26.478Z,103.34
2022-11-11T08:04:55.858Z,102.86
2022-11-11T08:07:24.167Z,103.08
2022-11-11T08:09:52.036Z,103.08
2022-11-11T08:12:37.454Z,103.12
2022-11-11T08:15:08.376Z,103.19
2022-11-11T08:17:41.913Z,102.86
2022-11-11T08:20:09.766Z,102.76
2022-11-11T08:22:38.077Z,102.67
2022-11-11T08:25:08.159Z,102.89
2022-11-11T08:27:36.142Z,102.95
2022-11-11T08:30:04.276Z,103.31
2022-11-11T08:32:30.946Z,103.23
2022-11-11T08:34:57.590Z,103.04
2022-11-11T08:37:24.332Z,103.00
2022-11-11T08:39:52.418Z,102.80
2022-11-11T08:42:19.541Z,102.83
2022-11-11T08:44:46.939Z,103.30
2022-11-11T08:47:13.613Z,103.05
2022-11-11T08:49:40.446Z,103.33
2022-11-11T08:52:07.208Z,102.83
2022-11-11T08:54:34.096Z,103.38
2022-11-11T08:57:00.924Z,103.37
2022-11-11T08:59:27.628Z,103.63
2022-11-11T09:01:54.231Z,103.41
2022-11-11T09:04:53.022Z,103.46
2022-11-11T09:07:09.363Z,103.34
2022-11-11T09:09:36.403Z,103.15
2022-11-11T09:12:03.648Z,103.51
2022-11-11T09:14:30.606Z,103.54
2022-11-11T09:16:57.435Z,103.48
2022-11-11T09:19:24.255Z,103.41
2022-11-11T09:21:52.920Z,103.04
2022-11-11T09:24:19.808Z,103.25
2022-11-11T09:26:50.604Z,103.12
2022-11-11T09:29:18.244Z,103.30
2022-11-11T09:31:46.396Z,103.09
2022-11-11T09:34:14.584Z,103.00
2022-11-11T09:36:42.238Z,103.13
2022-11-11T09:39:09.222Z,103.07
2022-11-11T09:41:55.762Z,103.21
2022-11-11T09:44:27.854Z,102.89
2022-11-11T09:47:12.594Z,103.12
2022-11-11T09:49:46.129Z,102.65
2022-11-11T09:52:20.837Z,103.06
2022-11-11T09:54:55.941Z,102.99
2022-11-11T09:57:39.519Z,102.83
2022-11-11T10:00:23.147Z,102.90
2022-11-11T10:02:53.972Z,102.80
2022-11-11T10:05:29.885Z,102.58
2022-11-11T10:08:06.506Z,103.17
2022-11-11T10:10:50.748Z,103.21
2022-11-11T10:13:28.175Z,102.76
2022-11-11T10:16:00.905Z,103.05
2022-11-11T10:18:50.372Z,102.84
2022-11-11T10:21:26.546Z,102.97
2022-11-11T10:23:59.783Z,102.91
2022-11-11T10:26:52.868Z,103.10
2022-11-11T10:29:26.359Z,102.88
2022-11-11T10:32:06.014Z,102.93
2022-11-11T10:34:34.433Z,102.86
2022-11-11T10:37:02.261Z,102.75
2022-11-11T10:39:48.472Z,102.75
2022-11-11T10:42:18.059Z,102.96
2022-11-11T10:44:45.402Z,102.87
2022-11-11T10:47:29.855Z,103.11
2022-11-11T10:50:10.265Z,103.02
2022-11-11T10:52:41.363Z,102.63
2022-11-11T10:55:23.013Z,103.20
2022-11-11T10:58:24.785Z,103.36
2022-11-11T11:00:56.860Z,103.02
2022-11-11T11:03:36.642Z,103.32
2022-11-11T11:06:06.345Z,103.40
2022-11-11T11:08:44.574Z,103.44
2022-11-11T11:11:20.798Z,103.83
2022-11-11T11:13:57.986Z,103.79
2022-11-11T11:16:29.273Z,103.47
2022-11-11T11:19:19.354Z,103.53
2022-11-11T11:22:00.024Z,103.69
2022-11-11T11:24:29.405Z,103.85
2022-11-11T11:26:58.597Z,103.95
2022-11-11T11:29:33.062Z,104.24
2022-11-11T11:32:17.725Z,103.94
2022-11-11T11:34:50.072Z,104.60
2022-11-11T11:37:19.375Z,104.28
2022-11-11T11:39:46.522Z,104.05
2022-11-11T11:42:33.049Z,104.31
2022-11-11T11:45:24.648Z,104.71
2022-11-11T11:51:28.882Z,104.83
2022-11-11T11:54:10.660Z,104.76
2022-11-11T11:56:38.912Z,104.99
2022-11-11T11:59:21.387Z,104.86
2022-11-11T12:01:55.781Z,105.09
2022-11-11T12:04:22.474Z,105.31
2022-11-11T12:07:13.292Z,104.98
2022-11-11T12:10:04.025Z,104.98
2022-11-11T12:12:48.293Z,105.56
2022-11-11T12:15:29.983Z,105.31
2022-11-11T12:18:09.103Z,105.38
2022-11-11T12:20:38.779Z,104.86
2022-11-11T12:23:37.801Z,105.51
2022-11-11T12:26:24.560Z,105.65
2022-11-11T12:29:15.384Z,106.88
2022-11-11T12:32:10.397Z,105.29
2022-11-11T12:34:54.857Z,105.11
2022-11-11T12:37:27.567Z,105.30
2022-11-11T12:40:04.624Z,105.15
2022-11-11T12:42:37.336Z,105.15
2022-11-11T12:45:17.489Z,104.69
2022-11-11T12:48:09.918Z,104.93
2022-11-11T12:51:02.963Z,104.45
2022-11-11T12:54:01.603Z,104.41
2022-11-11T12:56:51.727Z,104.89
2022-11-11T12:59:36.750Z,105.02
2022-11-11T13:02:24.765Z,104.83
2022-11-11T13:05:00.536Z,104.66
2022-11-11T13:07:48.505Z,104.65
2022-11-11T13:10:51.984Z,104.40
2022-11-11T13:13:49.118Z,104.59
2022-11-11T13:16:19.475Z,104.81
2022-11-11T13:19:00.691Z,104.96
2022-11-11T13:21:42.753Z,104.25
2022-11-11T13:24:15.219Z,104.28
2022-11-11T13:26:49.612Z,104.09
2022-11-11T13:29:43.825Z,104.04
2022-11-11T13:32:14.328Z,104.28
2022-11-11T13:34:42.330Z,104.38
2022-11-11T13:37:29.899Z,104.12
2022-11-11T13:40:10.285Z,103.59
2022-11-11T13:42:41.005Z,103.87
2022-11-11T13:45:19.853Z,103.71
2022-11-11T13:47:47.630Z,103.69
2022-11-11T13:50:31.751Z,103.44
2022-11-11T13:53:07.320Z,103.33
2022-11-11T13:55:39.990Z,103.00
2022-11-11T13:58:07.288Z,101.70
2022-11-11T14:00:38.904Z,100.80
2022-11-11T14:03:25.894Z,100.46
2022-11-11T14:06:14.724Z,101.68
2022-11-11T14:08:47.425Z,101.80
2022-11-11T14:11:26.367Z,101.37
2022-11-11T14:13:54.237Z,101.73
2022-11-11T14:16:33.159Z,101.83
2022-11-11T14:18:59.898Z,101.06
2022-11-11T14:21:59.156Z,100.32
2022-11-11T14:24:34.162Z,100.19
2022-11-11T14:27:03.624Z,99.58
2022-11-11T14:29:36.467Z,98.95
2022-11-11T14:32:12.195Z,99.01
2022-11-11T14:34:42.090Z,99.10
2022-11-11T14:37:17.980Z,99.67
2022-11-11T14:39:50.693Z,100.26
2022-11-11T14:42:35.766Z,100.38
2022-11-11T14:45:04.034Z,100.45
2022-11-11T14:47:32.355Z,100.74
2022-11-11T14:49:59.932Z,100.53
2022-11-11T14:52:26.620Z,100.68
2022-11-11T14:55:02.534Z,100.67
2022-11-11T14:58:10.350Z,100.70
2022-11-11T15:01:00.414Z,100.17
2022-11-11T15:03:31.224Z,100.32
2022-11-11T15:06:03.673Z,100.30
2022-11-11T15:08:52.071Z,100.54
2022-11-11T15:11:36.967Z,100.24
2022-11-11T15:14:21.411Z,100.05
2022-11-11T15:17:03.188Z,100.70
2022-11-11T15:19:48.121Z,101.13
2022-11-11T15:22:36.077Z,101.54
2022-11-11T15:25:08.985Z,101.66
2022-11-11T15:27:42.060Z,101.57
2022-11-11T15:30:21.362Z,101.58
2022-11-11T15:33:21.142Z,101.73
2022-11-11T15:35:54.103Z,101.86
2022-11-11T15:38:21.096Z,100.92
2022-11-11T15:40:50.672Z,101.14
2022-11-11T15:43:21.378Z,101.16
2022-11-11T15:45:58.343Z,101.22
2022-11-11T15:48:30.221Z,101.02
2022-11-11T15:50:57.033Z,101.08
2022-11-11T15:53:27.326Z,101.07
2022-11-11T15:55:56.333Z,101.19
2022-11-11T15:58:29.586Z,101.27
2022-11-11T16:00:58.423Z,101.38
2022-11-11T16:03:41.014Z,101.39
2022-11-11T16:06:11.497Z,101.11
2022-11-11T16:08:42.346Z,100.93
2022-11-11T16:11:13.878Z,101.47
2022-11-11T16:13:47.682Z,101.39
2022-11-11T16:16:21.842Z,101.33
2022-11-11T16:19:00.097Z,101.22
2022-11-11T16:22:02.890Z,101.44
2022-11-11T16:24:34.937Z,101.44
2022-11-11T16:27:04.811Z,101.30
2022-11-11T16:29:38.119Z,101.64
2022-11-11T16:32:23.658Z,101.04
2022-11-11T16:34:54.409Z,101.48
2022-11-11T16:37:21.926Z,101.57
2022-11-11T16:39:48.943Z,101.57
2022-11-11T16:42:22.753Z,101.70
2022-11-11T16:44:55.074Z,101.55
2022-11-11T16:47:28.135Z,101.46
2022-11-11T16:50:03.999Z,101.48
2022-11-11T16:52:38.739Z,101.61
2022-11-11T16:55:06.552Z,101.67
2022-11-11T16:57:34.245Z,101.41
2022-11-11T17:00:04.992Z,101.31
2022-11-11T17:02:32.211Z,101.81
2022-11-11T17:04:58.983Z,101.65
2022-11-11T17:07:31.901Z,101.82
2022-11-11T17:10:07.860Z,101.75
2022-11-11T17:12:37.565Z,101.75
2022-11-11T17:15:05.581Z,101.77
2022-11-11T17:17:32.898Z,101.80
2022-11-11T17:20:06.067Z,101.94
2022-11-11T17:22:33.065Z,101.94
2022-11-11T17:24:59.831Z,101.92
2022-11-11T17:27:30.677Z,102.22
2022-11-11T17:29:58.078Z,101.78
2022-11-11T17:32:24.838Z,102.07
2022-11-11T17:34:51.608Z,101.87
2022-11-11T17:37:18.360Z,101.92
2022-11-11T17:39:45.421Z,102.26
2022-11-11T17:42:12.397Z,102.01
2022-11-11T17:44:39.376Z,102.30
2022-11-11T17:47:06.330Z,102.41
2022-11-11T17:49:55.610Z,102.47
2022-11-11T17:52:19.911Z,102.19
2022-11-11T17:54:46.778Z,101.97
2022-11-11T17:57:13.459Z,102.26
2022-11-11T17:59:40.150Z,101.96
2022-11-11T18:02:07.161Z,101.87
2022-11-11T18:04:34.130Z,101.85
2022-11-11T18:07:01.053Z,101.86
2022-11-11T18:09:27.905Z,101.75
2022-11-11T18:11:54.597Z,101.74
2022-11-11T18:14:21.284Z,101.83
2022-11-11T18:16:48.013Z,101.60
2022-11-11T18:19:14.817Z,101.88
2022-11-11T18:21:42.371Z,101.73
2022-11-11T18:24:12.124Z,101.79
2022-11-11T18:26:39.094Z,101.51
2022-11-11T18:29:07.979Z,101.82
2022-11-11T18:31:35.346Z,101.79
2022-11-11T18:34:02.069Z,101.93
2022-11-11T18:36:28.981Z,102.05
2022-11-11T18:38:56.535Z,102.02
2022-11-11T18:41:24.157Z,101.50
2022-11-11T18:43:52.146Z,101.91
2022-11-11T18:46:21.413Z,101.95
2022-11-11T18:48:48.873Z,101.92
2022-11-11T18:51:17.420Z,101.78
2022-11-11T18:53:44.443Z,101.41
2022-11-11T18:56:17.918Z,101.29
2022-11-11T18:58:55.021Z,101.73
2022-11-11T19:01:25.117Z,101.70
2022-11-11T19:03:53.289Z,101.61
2022-11-11T19:06:23.234Z,101.73
2022-11-11T19:08:58.561Z,102.03
2022-11-11T19:11:26.665Z,101.67
2022-11-11T19:13:53.818Z,101.56
2022-11-11T19:16:23.966Z,101.88
2022-11-11T19:18:52.113Z,101.70
2022-11-11T19:21:24.354Z,101.56
2022-11-11T19:23:53.972Z,101.79
2022-11-11T19:26:21.938Z,101.15
2022-11-11T19:28:48.870Z,101.49
2022-11-11T19:31:17.729Z,101.46
2022-11-11T19:33:46.423Z,101.17
2022-11-11T19:36:18.886Z,101.10
2022-11-11T19:38:47.656Z,101.32
2022-11-11T19:41:19.504Z,101.30
2022-11-11T19:43:46.624Z,101.17
2022-11-11T19:46:16.222Z,100.86
2022-11-11T19:48:43.958Z,101.12
2022-11-11T19:51:13.516Z,100.52
2022-11-11T19:53:40.601Z,100.41
2022-11-11T19:56:09.770Z,100.74
2022-11-11T19:58:37.037Z,100.67
2022-11-11T20:01:11.915Z,100.75
2022-11-11T20:03:39.845Z,100.80
2022-11-11T20:06:18.659Z,100.68
2022-11-11T20:08:45.283Z,100.31
2022-11-11T20:11:12.088Z,100.77
2022-11-11T20:13:42.589Z,100.89
2022-11-11T20:16:10.259Z,101.09
2022-11-11T20:18:37.098Z,100.97
2022-11-11T20:21:06.415Z,100.80
2022-11-11T20:23:41.057Z,101.19
2022-11-11T20:26:10.563Z,101.13
2022-11-11T20:28:37.500Z,100.96
2022-11-11T20:31:16.267Z,100.56
2022-11-11T20:33:43.488Z,101.33
2022-11-11T20:36:12.861Z,101.04
2022-11-11T20:38:40.044Z,101.43
2022-11-11T20:41:13.234Z,101.37
2022-11-11T20:43:40.376Z,101.48
2022-11-11T20:46:12.763Z,100.91
2022-11-11T20:48:41.534Z,101.43
2022-11-11T20:51:35.537Z,101.27
2022-11-11T20:54:02.228Z,101.31
2022-11-11T20:56:29.625Z,101.06
2022-11-11T20:58:56.777Z,100.69
2022-11-11T21:01:25.791Z,100.64
2022-11-11T21:03:57.761Z,101.06
2022-11-11T21:06:25.549Z,101.45
2022-11-11T21:08:52.963Z,101.23
2022-11-11T21:11:22.000Z,101.60
2022-11-11T21:13:52.152Z,101.47
2022-11-11T21:16:29.367Z,101.44
2022-11-11T21:18:57.208Z,101.68
2022-11-11T21:21:25.462Z,101.99
2022-11-11T21:23:59.503Z,101.95
2022-11-11T21:26:26.759Z,101.99
2022-11-11T21:28:54.150Z,101.95
2022-11-11T21:31:23.639Z,101.68
2022-11-11T21:33:51.841Z,101.57
2022-11-11T21:36:19.826Z,101.73
2022-11-11T21:38:46.851Z,101.81
2022-11-11T21:41:16.645Z,101.92
2022-11-11T21:43:44.098Z,101.77
2022-11-11T21:46:14.346Z,101.82
2022-11-11T21:48:41.504Z,101.89
2022-11-11T21:51:12.653Z,102.35
2022-11-11T21:53:42.836Z,102.24
2022-11-11T21:56:14.080Z,102.77
2022-11-11T21:58:41.992Z,102.67
2022-11-11T22:01:14.199Z,102.76
2022-11-11T22:03:42.273Z,103.21
2022-11-11T22:06:12.181Z,103.18
2022-11-11T22:08:39.411Z,103.10
2022-11-11T22:11:09.498Z,103.15
2022-11-11T22:13:38.362Z,103.48
2022-11-11T22:16:16.919Z,103.48
2022-11-11T22:18:44.809Z,103.32
2022-11-11T22:21:20.868Z,103.80
2022-11-11T22:23:50.050Z,103.76
2022-11-11T22:26:18.182Z,103.74
2022-11-11T22:28:49.740Z,103.50
2022-11-11T22:31:23.116Z,103.49
2022-11-11T22:33:57.350Z,103.45
2022-11-11T22:36:24.064Z,103.51
2022-11-11T22:38:50.998Z,103.68
2022-11-11T22:41:22.420Z,103.50
2022-11-11T22:44:05.021Z,103.38
2022-11-11T22:46:33.572Z,103.66
2022-11-11T22:49:05.719Z,103.18
2022-11-11T22:51:33.732Z,103.28
2022-11-11T22:54:06.460Z,103.73
2022-11-11T22:56:34.762Z,103.80
2022-11-11T22:59:04.446Z,103.78
2022-11-11T23:01:32.352Z,103.11
2022-11-11T23:04:01.329Z,103.57
2022-11-11T23:06:35.621Z,102.99
2022-11-11T23:09:02.858Z,103.00
2022-11-11T23:11:31.123Z,103.16
2022-11-11T23:14:03.357Z,103.28
2022-11-11T23:16:31.262Z,103.43
2022-11-11T23:18:59.377Z,103.35
2022-11-11T23:21:28.536Z,103.54
2022-11-11T23:23:56.143Z,103.54
2022-11-11T23:26:25.888Z,103.50
2022-11-11T23:28:53.076Z,103.43
2022-11-11T23:31:22.751Z,103.46
2022-11-11T23:33:51.522Z,103.24
2022-11-11T23:36:20.527Z,103.26
2022-11-11T23:38:48.268Z,103.15
2022-11-11T23:41:15.030Z,103.37
2022-11-11T23:43:41.993Z,103.33
2022-11-11T23:46:09.505Z,103.35
2022-11-11T23:48:37.070Z,103.31
2022-11-11T23:51:04.186Z,103.14
2022-11-11T23:53:32.039Z,103.25
2022-11-11T23:55:58.832Z,103.08
2022-11-11T23:58:26.554Z,102.83
